sensor_id;sensor_type;location;lat;lon;timestamp;P1;durP1;ratioP1;P2;durP2;ratioP2
64871;SDS011;51351;51.450;6.614;2023-09-19T00:00:37;8.13;;;2.30;;
64871;SDS011;51351;51.450;6.614;2023-09-19T00:03:05;9.30;;;2.70;;
64871;SDS011;51351;51.450;6.614;2023-09-19T00:05:34;7.77;;;2.00;;
64871;SDS011;51351;51.450;6.614;2023-09-19T00:08:01;6.70;;;2.25;;
64871;SDS011;51351;51.450;6.614;2023-09-19T00:10:31;7.90;;;2.40;;
64871;SDS011;51351;51.450;6.614;2023-09-19T00:13:00;8.73;;;2.75;;
64871;SDS011;51351;51.450;6.614;2023-09-19T00:15:31;9.87;;;2.00;;
64871;SDS011;51351;51.450;6.614;2023-09-19T00:18:01;11.20;;;2.63;;
64871;SDS011;51351;51.450;6.614;2023-09-19T00:20:26;8.35;;;2.10;;
64871;SDS011;51351;51.450;6.614;2023-09-19T00:22:55;6.43;;;2.30;;
64871;SDS011;51351;51.450;6.614;2023-09-19T00:25:20;7.03;;;2.13;;
64871;SDS011;51351;51.450;6.614;2023-09-19T00:27:49;7.80;;;2.67;;
64871;SDS011;51351;51.450;6.614;2023-09-19T00:30:17;9.30;;;2.83;;
64871;SDS011;51351;51.450;6.614;2023-09-19T00:32:50;7.13;;;2.08;;
64871;SDS011;51351;51.450;6.614;2023-09-19T00:35:22;6.15;;;2.13;;
64871;SDS011;51351;51.450;6.614;2023-09-19T00:37:51;7.95;;;2.40;;
64871;SDS011;51351;51.450;6.614;2023-09-19T00:40:17;9.60;;;2.42;;
64871;SDS011;51351;51.450;6.614;2023-09-19T00:42:47;11.80;;;2.50;;
64871;SDS011;51351;51.450;6.614;2023-09-19T00:45:14;10.73;;;2.63;;
64871;SDS011;51351;51.450;6.614;2023-09-19T00:47:44;7.85;;;2.30;;
64871;SDS011;51351;51.450;6.614;2023-09-19T00:50:17;9.68;;;2.78;;
64871;SDS011;51351;51.450;6.614;2023-09-19T00:52:44;9.40;;;2.60;;
64871;SDS011;51351;51.450;6.614;2023-09-19T00:55:11;9.93;;;2.43;;
64871;SDS011;51351;51.450;6.614;2023-09-19T00:57:38;8.70;;;2.38;;
64871;SDS011;51351;51.450;6.614;2023-09-19T01:00:05;7.50;;;2.33;;
64871;SDS011;51351;51.450;6.614;2023-09-19T01:02:36;5.53;;;2.28;;
64871;SDS011;51351;51.450;6.614;2023-09-19T01:05:02;6.60;;;1.98;;
64871;SDS011;51351;51.450;6.614;2023-09-19T01:07:31;9.70;;;2.00;;
64871;SDS011;51351;51.450;6.614;2023-09-19T01:09:58;6.82;;;2.05;;
64871;SDS011;51351;51.450;6.614;2023-09-19T01:12:47;7.85;;;2.65;;
64871;SDS011;51351;51.450;6.614;2023-09-19T01:29:36;10.07;;;2.65;;
64871;SDS011;51351;51.450;6.614;2023-09-19T01:32:05;6.40;;;2.67;;
64871;SDS011;51351;51.450;6.614;2023-09-19T01:34:48;4.28;;;1.90;;
64871;SDS011;51351;51.450;6.614;2023-09-19T01:37:15;7.63;;;1.88;;
64871;SDS011;51351;51.450;6.614;2023-09-19T01:39:49;9.35;;;4.93;;
64871;SDS011;51351;51.450;6.614;2023-09-19T01:51:11;6.63;;;2.50;;
64871;SDS011;51351;51.450;6.614;2023-09-19T01:53:50;8.48;;;2.97;;
64871;SDS011;51351;51.450;6.614;2023-09-19T01:56:35;5.10;;;2.33;;
64871;SDS011;51351;51.450;6.614;2023-09-19T01:59:17;7.90;;;2.75;;
64871;SDS011;51351;51.450;6.614;2023-09-19T02:01:49;7.88;;;2.33;;
64871;SDS011;51351;51.450;6.614;2023-09-19T02:04:16;5.75;;;1.75;;
64871;SDS011;51351;51.450;6.614;2023-09-19T02:06:42;6.00;;;1.70;;
64871;SDS011;51351;51.450;6.614;2023-09-19T02:09:08;7.60;;;2.10;;
64871;SDS011;51351;51.450;6.614;2023-09-19T02:11:34;8.57;;;2.83;;
64871;SDS011;51351;51.450;6.614;2023-09-19T02:14:01;5.28;;;1.88;;
64871;SDS011;51351;51.450;6.614;2023-09-19T02:16:27;6.65;;;2.97;;
64871;SDS011;51351;51.450;6.614;2023-09-19T02:18:54;5.85;;;2.58;;
64871;SDS011;51351;51.450;6.614;2023-09-19T02:21:19;5.47;;;2.20;;
64871;SDS011;51351;51.450;6.614;2023-09-19T02:23:47;7.25;;;2.13;;
64871;SDS011;51351;51.450;6.614;2023-09-19T02:26:12;9.40;;;2.63;;
64871;SDS011;51351;51.450;6.614;2023-09-19T02:28:40;4.88;;;2.08;;
64871;SDS011;51351;51.450;6.614;2023-09-19T02:31:07;8.30;;;3.38;;
64871;SDS011;51351;51.450;6.614;2023-09-19T02:33:33;5.55;;;2.42;;
64871;SDS011;51351;51.450;6.614;2023-09-19T02:35:59;12.10;;;2.15;;
64871;SDS011;51351;51.450;6.614;2023-09-19T02:38:25;6.75;;;2.75;;
64871;SDS011;51351;51.450;6.614;2023-09-19T02:40:51;10.15;;;2.10;;
64871;SDS011;51351;51.450;6.614;2023-09-19T02:43:21;7.38;;;2.15;;
64871;SDS011;51351;51.450;6.614;2023-09-19T02:45:47;3.90;;;1.80;;
64871;SDS011;51351;51.450;6.614;2023-09-19T02:48:18;7.72;;;2.30;;
64871;SDS011;51351;51.450;6.614;2023-09-19T02:50:44;9.52;;;2.60;;
64871;SDS011;51351;51.450;6.614;2023-09-19T02:53:09;7.80;;;2.10;;
64871;SDS011;51351;51.450;6.614;2023-09-19T02:55:38;6.78;;;2.17;;
64871;SDS011;51351;51.450;6.614;2023-09-19T02:58:05;7.55;;;2.30;;
64871;SDS011;51351;51.450;6.614;2023-09-19T03:00:33;10.90;;;2.90;;
64871;SDS011;51351;51.450;6.614;2023-09-19T03:03:00;7.72;;;2.35;;
64871;SDS011;51351;51.450;6.614;2023-09-19T03:05:27;7.85;;;2.25;;
64871;SDS011;51351;51.450;6.614;2023-09-19T03:07:56;9.33;;;2.47;;
64871;SDS011;51351;51.450;6.614;2023-09-19T03:10:22;8.07;;;2.33;;
64871;SDS011;51351;51.450;6.614;2023-09-19T03:12:50;8.88;;;2.53;;
64871;SDS011;51351;51.450;6.614;2023-09-19T03:15:16;9.25;;;2.67;;
64871;SDS011;51351;51.450;6.614;2023-09-19T03:17:44;8.40;;;2.63;;
64871;SDS011;51351;51.450;6.614;2023-09-19T03:20:15;7.53;;;2.40;;
64871;SDS011;51351;51.450;6.614;2023-09-19T03:22:44;7.20;;;2.40;;
64871;SDS011;51351;51.450;6.614;2023-09-19T03:25:11;6.30;;;2.10;;
64871;SDS011;51351;51.450;6.614;2023-09-19T03:27:38;9.13;;;2.22;;
64871;SDS011;51351;51.450;6.614;2023-09-19T03:30:05;6.95;;;2.30;;
64871;SDS011;51351;51.450;6.614;2023-09-19T03:32:37;9.48;;;2.10;;
64871;SDS011;51351;51.450;6.614;2023-09-19T03:35:08;6.07;;;2.10;;
64871;SDS011;51351;51.450;6.614;2023-09-19T03:37:34;9.63;;;3.08;;
64871;SDS011;51351;51.450;6.614;2023-09-19T03:40:00;9.48;;;2.22;;
64871;SDS011;51351;51.450;6.614;2023-09-19T03:42:31;5.57;;;2.20;;
64871;SDS011;51351;51.450;6.614;2023-09-19T03:44:56;7.03;;;1.98;;
64871;SDS011;51351;51.450;6.614;2023-09-19T03:47:22;7.53;;;2.33;;
64871;SDS011;51351;51.450;6.614;2023-09-19T03:49:48;6.80;;;2.20;;
64871;SDS011;51351;51.450;6.614;2023-09-19T03:52:13;8.05;;;2.53;;
64871;SDS011;51351;51.450;6.614;2023-09-19T03:54:41;9.25;;;2.50;;
64871;SDS011;51351;51.450;6.614;2023-09-19T03:57:06;7.63;;;2.20;;
64871;SDS011;51351;51.450;6.614;2023-09-19T03:59:32;9.80;;;2.67;;
64871;SDS011;51351;51.450;6.614;2023-09-19T04:01:57;8.70;;;2.43;;
64871;SDS011;51351;51.450;6.614;2023-09-19T04:04:23;8.75;;;2.25;;
64871;SDS011;51351;51.450;6.614;2023-09-19T04:06:52;8.18;;;2.72;;
64871;SDS011;51351;51.450;6.614;2023-09-19T04:09:18;7.13;;;2.40;;
64871;SDS011;51351;51.450;6.614;2023-09-19T04:11:43;7.05;;;2.58;;
64871;SDS011;51351;51.450;6.614;2023-09-19T04:14:10;8.05;;;2.33;;
64871;SDS011;51351;51.450;6.614;2023-09-19T04:16:36;6.32;;;2.28;;
64871;SDS011;51351;51.450;6.614;2023-09-19T04:19:01;9.55;;;2.78;;
64871;SDS011;51351;51.450;6.614;2023-09-19T04:21:28;8.18;;;2.50;;
64871;SDS011;51351;51.450;6.614;2023-09-19T04:23:57;9.25;;;2.90;;
64871;SDS011;51351;51.450;6.614;2023-09-19T04:26:24;7.70;;;2.92;;
64871;SDS011;51351;51.450;6.614;2023-09-19T04:28:51;9.37;;;2.23;;
64871;SDS011;51351;51.450;6.614;2023-09-19T04:31:16;13.07;;;3.00;;
64871;SDS011;51351;51.450;6.614;2023-09-19T04:33:43;10.38;;;2.28;;
64871;SDS011;51351;51.450;6.614;2023-09-19T04:36:09;8.48;;;3.20;;
64871;SDS011;51351;51.450;6.614;2023-09-19T04:38:35;7.80;;;2.70;;
64871;SDS011;51351;51.450;6.614;2023-09-19T04:41:00;7.60;;;2.17;;
64871;SDS011;51351;51.450;6.614;2023-09-19T04:43:26;10.30;;;3.53;;
64871;SDS011;51351;51.450;6.614;2023-09-19T04:45:51;10.57;;;2.75;;
64871;SDS011;51351;51.450;6.614;2023-09-19T04:48:21;6.72;;;2.35;;
64871;SDS011;51351;51.450;6.614;2023-09-19T04:50:49;8.38;;;2.70;;
64871;SDS011;51351;51.450;6.614;2023-09-19T04:53:14;8.50;;;2.40;;
64871;SDS011;51351;51.450;6.614;2023-09-19T04:55:40;8.70;;;3.03;;
64871;SDS011;51351;51.450;6.614;2023-09-19T04:58:05;8.17;;;2.37;;
64871;SDS011;51351;51.450;6.614;2023-09-19T05:00:30;7.10;;;2.80;;
64871;SDS011;51351;51.450;6.614;2023-09-19T05:03:00;8.40;;;2.63;;
64871;SDS011;51351;51.450;6.614;2023-09-19T05:05:26;8.30;;;2.65;;
64871;SDS011;51351;51.450;6.614;2023-09-19T05:07:51;9.10;;;3.27;;
64871;SDS011;51351;51.450;6.614;2023-09-19T05:10:19;11.55;;;2.90;;
64871;SDS011;51351;51.450;6.614;2023-09-19T05:12:45;10.98;;;2.65;;
64871;SDS011;51351;51.450;6.614;2023-09-19T05:15:12;7.80;;;3.03;;
64871;SDS011;51351;51.450;6.614;2023-09-19T05:17:48;9.35;;;2.83;;
64871;SDS011;51351;51.450;6.614;2023-09-19T05:20:15;6.57;;;2.45;;
64871;SDS011;51351;51.450;6.614;2023-09-19T05:22:43;6.67;;;2.53;;
64871;SDS011;51351;51.450;6.614;2023-09-19T05:25:11;10.23;;;2.63;;
64871;SDS011;51351;51.450;6.614;2023-09-19T05:27:41;6.80;;;2.38;;
64871;SDS011;51351;51.450;6.614;2023-09-19T05:30:07;7.75;;;2.80;;
64871;SDS011;51351;51.450;6.614;2023-09-19T05:32:33;9.05;;;3.08;;
64871;SDS011;51351;51.450;6.614;2023-09-19T05:34:59;10.02;;;2.67;;
64871;SDS011;51351;51.450;6.614;2023-09-19T05:37:24;10.55;;;2.55;;
64871;SDS011;51351;51.450;6.614;2023-09-19T05:39:51;8.73;;;2.53;;
64871;SDS011;51351;51.450;6.614;2023-09-19T05:42:18;11.80;;;3.10;;
64871;SDS011;51351;51.450;6.614;2023-09-19T05:44:43;7.87;;;2.90;;
64871;SDS011;51351;51.450;6.614;2023-09-19T05:47:09;8.57;;;2.47;;
64871;SDS011;51351;51.450;6.614;2023-09-19T05:49:37;8.83;;;2.70;;
64871;SDS011;51351;51.450;6.614;2023-09-19T05:52:06;7.82;;;2.60;;
64871;SDS011;51351;51.450;6.614;2023-09-19T05:54:31;10.40;;;2.57;;
64871;SDS011;51351;51.450;6.614;2023-09-19T05:56:59;9.85;;;2.97;;
64871;SDS011;51351;51.450;6.614;2023-09-19T05:59:27;8.33;;;2.83;;
64871;SDS011;51351;51.450;6.614;2023-09-19T06:01:53;12.50;;;3.80;;
64871;SDS011;51351;51.450;6.614;2023-09-19T06:04:18;8.20;;;2.57;;
64871;SDS011;51351;51.450;6.614;2023-09-19T06:06:44;10.38;;;2.60;;
64871;SDS011;51351;51.450;6.614;2023-09-19T06:09:13;8.43;;;2.22;;
64871;SDS011;51351;51.450;6.614;2023-09-19T06:11:41;8.65;;;2.58;;
64871;SDS011;51351;51.450;6.614;2023-09-19T06:14:07;7.32;;;2.97;;
64871;SDS011;51351;51.450;6.614;2023-09-19T06:16:32;8.70;;;2.22;;
64871;SDS011;51351;51.450;6.614;2023-09-19T06:18:58;9.38;;;2.90;;
64871;SDS011;51351;51.450;6.614;2023-09-19T06:21:26;8.40;;;2.45;;
64871;SDS011;51351;51.450;6.614;2023-09-19T06:23:55;9.50;;;3.35;;
64871;SDS011;51351;51.450;6.614;2023-09-19T06:26:23;8.88;;;2.20;;
64871;SDS011;51351;51.450;6.614;2023-09-19T06:28:48;7.60;;;2.40;;
64871;SDS011;51351;51.450;6.614;2023-09-19T06:31:14;6.87;;;2.10;;
64871;SDS011;51351;51.450;6.614;2023-09-19T06:33:39;8.07;;;2.60;;
64871;SDS011;51351;51.450;6.614;2023-09-19T06:36:05;8.73;;;3.07;;
64871;SDS011;51351;51.450;6.614;2023-09-19T06:38:31;7.20;;;2.20;;
64871;SDS011;51351;51.450;6.614;2023-09-19T06:40:59;8.07;;;2.30;;
64871;SDS011;51351;51.450;6.614;2023-09-19T06:43:26;8.18;;;2.33;;
64871;SDS011;51351;51.450;6.614;2023-09-19T06:45:52;9.13;;;2.33;;
64871;SDS011;51351;51.450;6.614;2023-09-19T06:48:19;11.02;;;2.50;;
64871;SDS011;51351;51.450;6.614;2023-09-19T06:50:46;9.55;;;2.72;;
64871;SDS011;51351;51.450;6.614;2023-09-19T06:53:13;10.93;;;2.43;;
64871;SDS011;51351;51.450;6.614;2023-09-19T06:55:39;7.72;;;2.20;;
64871;SDS011;51351;51.450;6.614;2023-09-19T06:58:05;11.18;;;2.70;;
64871;SDS011;51351;51.450;6.614;2023-09-19T07:00:32;5.55;;;2.40;;
64871;SDS011;51351;51.450;6.614;2023-09-19T07:03:10;5.20;;;1.75;;
64871;SDS011;51351;51.450;6.614;2023-09-19T07:05:39;6.85;;;2.00;;
64871;SDS011;51351;51.450;6.614;2023-09-19T07:08:06;12.70;;;2.17;;
64871;SDS011;51351;51.450;6.614;2023-09-19T07:10:33;8.10;;;1.90;;
64871;SDS011;51351;51.450;6.614;2023-09-19T07:12:59;10.63;;;2.55;;
64871;SDS011;51351;51.450;6.614;2023-09-19T07:15:28;10.48;;;2.70;;
64871;SDS011;51351;51.450;6.614;2023-09-19T07:17:56;5.78;;;2.22;;
64871;SDS011;51351;51.450;6.614;2023-09-19T07:20:22;7.40;;;2.13;;
64871;SDS011;51351;51.450;6.614;2023-09-19T07:22:51;7.55;;;1.30;;
64871;SDS011;51351;51.450;6.614;2023-09-19T07:25:19;6.35;;;2.38;;
64871;SDS011;51351;51.450;6.614;2023-09-19T07:27:45;4.50;;;1.77;;
64871;SDS011;51351;51.450;6.614;2023-09-19T07:30:11;8.63;;;2.03;;
64871;SDS011;51351;51.450;6.614;2023-09-19T07:32:37;8.63;;;2.42;;
64871;SDS011;51351;51.450;6.614;2023-09-19T07:35:04;5.03;;;2.92;;
64871;SDS011;51351;51.450;6.614;2023-09-19T07:37:31;8.27;;;1.67;;
64871;SDS011;51351;51.450;6.614;2023-09-19T07:40:05;4.68;;;1.67;;
64871;SDS011;51351;51.450;6.614;2023-09-19T07:45:06;4.40;;;1.65;;
64871;SDS011;51351;51.450;6.614;2023-09-19T07:47:33;6.18;;;2.03;;
64871;SDS011;51351;51.450;6.614;2023-09-19T07:49:59;18.10;;;2.00;;
64871;SDS011;51351;51.450;6.614;2023-09-19T07:52:27;7.40;;;2.67;;
64871;SDS011;51351;51.450;6.614;2023-09-19T07:54:53;7.65;;;2.05;;
64871;SDS011;51351;51.450;6.614;2023-09-19T07:57:19;5.40;;;1.73;;
64871;SDS011;51351;51.450;6.614;2023-09-19T07:59:45;5.57;;;1.60;;
64871;SDS011;51351;51.450;6.614;2023-09-19T08:02:10;11.60;;;2.60;;
64871;SDS011;51351;51.450;6.614;2023-09-19T08:04:42;8.10;;;2.72;;
64871;SDS011;51351;51.450;6.614;2023-09-19T08:07:08;5.43;;;1.70;;
64871;SDS011;51351;51.450;6.614;2023-09-19T08:09:34;7.07;;;1.80;;
64871;SDS011;51351;51.450;6.614;2023-09-19T08:14:30;5.43;;;1.65;;
64871;SDS011;51351;51.450;6.614;2023-09-19T08:16:59;9.68;;;2.88;;
64871;SDS011;51351;51.450;6.614;2023-09-19T08:19:25;5.78;;;2.45;;
64871;SDS011;51351;51.450;6.614;2023-09-19T08:21:56;7.80;;;3.05;;
64871;SDS011;51351;51.450;6.614;2023-09-19T08:24:26;8.38;;;1.88;;
64871;SDS011;51351;51.450;6.614;2023-09-19T08:26:56;5.15;;;1.55;;
64871;SDS011;51351;51.450;6.614;2023-09-19T08:29:22;12.55;;;2.13;;
64871;SDS011;51351;51.450;6.614;2023-09-19T08:31:56;13.32;;;2.70;;
64871;SDS011;51351;51.450;6.614;2023-09-19T08:39:17;7.10;;;1.92;;
64871;SDS011;51351;51.450;6.614;2023-09-19T08:41:44;7.85;;;1.77;;
64871;SDS011;51351;51.450;6.614;2023-09-19T08:44:10;8.02;;;1.83;;
64871;SDS011;51351;51.450;6.614;2023-09-19T08:54:06;6.97;;;2.30;;
64871;SDS011;51351;51.450;6.614;2023-09-19T08:56:33;8.10;;;2.35;;
64871;SDS011;51351;51.450;6.614;2023-09-19T09:01:27;5.13;;;2.20;;
64871;SDS011;51351;51.450;6.614;2023-09-19T09:03:54;8.32;;;2.08;;
64871;SDS011;51351;51.450;6.614;2023-09-19T09:06:20;9.23;;;1.60;;
64871;SDS011;51351;51.450;6.614;2023-09-19T09:11:15;4.32;;;1.27;;
64871;SDS011;51351;51.450;6.614;2023-09-19T09:51:50;6.63;;;2.65;;
64871;SDS011;51351;51.450;6.614;2023-09-19T09:54:25;3.78;;;1.20;;
64871;SDS011;51351;51.450;6.614;2023-09-19T10:00:07;5.95;;;1.60;;
64871;SDS011;51351;51.450;6.614;2023-09-19T10:02:28;9.30;;;2.17;;
64871;SDS011;51351;51.450;6.614;2023-09-19T10:04:55;7.78;;;2.08;;
64871;SDS011;51351;51.450;6.614;2023-09-19T10:07:30;5.50;;;1.63;;
64871;SDS011;51351;51.450;6.614;2023-09-19T10:10:06;6.38;;;1.80;;
64871;SDS011;51351;51.450;6.614;2023-09-19T10:12:44;9.63;;;2.78;;
64871;SDS011;51351;51.450;6.614;2023-09-19T10:15:14;5.63;;;2.00;;
64871;SDS011;51351;51.450;6.614;2023-09-19T10:17:43;6.20;;;1.98;;
64871;SDS011;51351;51.450;6.614;2023-09-19T10:20:14;6.90;;;2.33;;
64871;SDS011;51351;51.450;6.614;2023-09-19T10:23:00;5.63;;;1.63;;
64871;SDS011;51351;51.450;6.614;2023-09-19T10:25:29;4.40;;;1.45;;
64871;SDS011;51351;51.450;6.614;2023-09-19T10:27:56;8.18;;;1.67;;
64871;SDS011;51351;51.450;6.614;2023-09-19T10:30:26;8.20;;;1.83;;
64871;SDS011;51351;51.450;6.614;2023-09-19T10:32:56;6.57;;;1.75;;
64871;SDS011;51351;51.450;6.614;2023-09-19T10:35:25;8.20;;;1.85;;
64871;SDS011;51351;51.450;6.614;2023-09-19T10:40:19;7.10;;;1.92;;
64871;SDS011;51351;51.450;6.614;2023-09-19T10:42:46;7.13;;;1.92;;
64871;SDS011;51351;51.450;6.614;2023-09-19T10:45:15;6.15;;;1.45;;
64871;SDS011;51351;51.450;6.614;2023-09-19T10:47:42;6.82;;;1.42;;
64871;SDS011;51351;51.450;6.614;2023-09-19T10:50:09;8.00;;;1.98;;
64871;SDS011;51351;51.450;6.614;2023-09-19T10:52:46;4.55;;;1.60;;
64871;SDS011;51351;51.450;6.614;2023-09-19T10:55:18;4.65;;;1.67;;
64871;SDS011;51351;51.450;6.614;2023-09-19T10:57:47;5.68;;;1.60;;
64871;SDS011;51351;51.450;6.614;2023-09-19T11:06:19;4.85;;;1.60;;
64871;SDS011;51351;51.450;6.614;2023-09-19T11:08:58;4.72;;;1.50;;
64871;SDS011;51351;51.450;6.614;2023-09-19T11:11:45;6.15;;;1.90;;
64871;SDS011;51351;51.450;6.614;2023-09-19T11:30:52;9.48;;;2.10;;
64871;SDS011;51351;51.450;6.614;2023-09-19T11:33:29;3.35;;;1.40;;
64871;SDS011;51351;51.450;6.614;2023-09-19T11:43:46;5.32;;;1.52;;
64871;SDS011;51351;51.450;6.614;2023-09-19T11:46:16;10.00;;;2.10;;
64871;SDS011;51351;51.450;6.614;2023-09-19T11:48:50;3.65;;;1.80;;
64871;SDS011;51351;51.450;6.614;2023-09-19T11:54:01;7.90;;;2.10;;
64871;SDS011;51351;51.450;6.614;2023-09-19T11:56:28;2.78;;;1.55;;
64871;SDS011;51351;51.450;6.614;2023-09-19T12:01:21;4.07;;;1.58;;
64871;SDS011;51351;51.450;6.614;2023-09-19T12:03:54;5.68;;;1.38;;
64871;SDS011;51351;51.450;6.614;2023-09-19T12:06:22;4.68;;;1.20;;
64871;SDS011;51351;51.450;6.614;2023-09-19T12:08:49;5.45;;;1.67;;
64871;SDS011;51351;51.450;6.614;2023-09-19T12:11:16;6.47;;;1.45;;
64871;SDS011;51351;51.450;6.614;2023-09-19T12:13:43;4.57;;;2.42;;
64871;SDS011;51351;51.450;6.614;2023-09-19T12:16:16;3.55;;;0.98;;
64871;SDS011;51351;51.450;6.614;2023-09-19T12:18:50;7.55;;;1.73;;
64871;SDS011;51351;51.450;6.614;2023-09-19T12:26:41;5.68;;;1.48;;
64871;SDS011;51351;51.450;6.614;2023-09-19T12:29:12;3.20;;;1.52;;
64871;SDS011;51351;51.450;6.614;2023-09-19T12:31:49;2.58;;;1.25;;
64871;SDS011;51351;51.450;6.614;2023-09-19T12:34:20;4.30;;;1.25;;
64871;SDS011;51351;51.450;6.614;2023-09-19T12:36:47;5.10;;;1.80;;
64871;SDS011;51351;51.450;6.614;2023-09-19T12:39:23;3.90;;;1.38;;
64871;SDS011;51351;51.450;6.614;2023-09-19T12:41:54;6.60;;;1.02;;
64871;SDS011;51351;51.450;6.614;2023-09-19T12:46:46;3.10;;;1.10;;
64871;SDS011;51351;51.450;6.614;2023-09-19T12:49:17;2.03;;;0.73;;
64871;SDS011;51351;51.450;6.614;2023-09-19T12:54:10;2.78;;;1.35;;
64871;SDS011;51351;51.450;6.614;2023-09-19T12:59:06;4.32;;;1.52;;
64871;SDS011;51351;51.450;6.614;2023-09-19T13:01:35;4.13;;;1.45;;
64871;SDS011;51351;51.450;6.614;2023-09-19T13:06:47;4.75;;;2.00;;
64871;SDS011;51351;51.450;6.614;2023-09-19T13:09:17;4.18;;;1.27;;
64871;SDS011;51351;51.450;6.614;2023-09-19T13:11:46;4.07;;;1.08;;
64871;SDS011;51351;51.450;6.614;2023-09-19T13:19:34;4.13;;;1.27;;
64871;SDS011;51351;51.450;6.614;2023-09-19T13:25:10;4.90;;;0.93;;
64871;SDS011;51351;51.450;6.614;2023-09-19T13:27:49;1.58;;;1.00;;
64871;SDS011;51351;51.450;6.614;2023-09-19T13:30:22;4.60;;;1.25;;
64871;SDS011;51351;51.450;6.614;2023-09-19T13:32:50;4.82;;;1.30;;
64871;SDS011;51351;51.450;6.614;2023-09-19T13:35:17;3.72;;;1.20;;
64871;SDS011;51351;51.450;6.614;2023-09-19T13:40:13;3.28;;;1.27;;
64871;SDS011;51351;51.450;6.614;2023-09-19T13:42:40;6.05;;;1.00;;
64871;SDS011;51351;51.450;6.614;2023-09-19T13:45:07;6.47;;;0.68;;
64871;SDS011;51351;51.450;6.614;2023-09-19T13:47:37;6.00;;;1.38;;
64871;SDS011;51351;51.450;6.614;2023-09-19T13:50:03;3.38;;;0.68;;
64871;SDS011;51351;51.450;6.614;2023-09-19T13:52:32;4.13;;;1.00;;
64871;SDS011;51351;51.450;6.614;2023-09-19T13:54:58;4.22;;;0.85;;
64871;SDS011;51351;51.450;6.614;2023-09-19T13:59:51;3.00;;;0.90;;
64871;SDS011;51351;51.450;6.614;2023-09-19T14:02:17;2.63;;;1.08;;
64871;SDS011;51351;51.450;6.614;2023-09-19T14:04:47;3.75;;;1.10;;
64871;SDS011;51351;51.450;6.614;2023-09-19T14:07:14;2.88;;;1.02;;
64871;SDS011;51351;51.450;6.614;2023-09-19T14:09:40;2.65;;;0.80;;
64871;SDS011;51351;51.450;6.614;2023-09-19T14:12:06;5.10;;;1.67;;
64871;SDS011;51351;51.450;6.614;2023-09-19T14:16:57;2.10;;;0.80;;
64871;SDS011;51351;51.450;6.614;2023-09-19T14:19:26;5.03;;;1.00;;
64871;SDS011;51351;51.450;6.614;2023-09-19T14:21:54;6.10;;;1.67;;
64871;SDS011;51351;51.450;6.614;2023-09-19T14:24:22;2.10;;;0.85;;
64871;SDS011;51351;51.450;6.614;2023-09-19T14:26:48;2.33;;;0.90;;
64871;SDS011;51351;51.450;6.614;2023-09-19T14:31:42;2.88;;;0.90;;
64871;SDS011;51351;51.450;6.614;2023-09-19T14:34:08;3.22;;;1.00;;
64871;SDS011;51351;51.450;6.614;2023-09-19T14:36:37;3.63;;;0.85;;
64871;SDS011;51351;51.450;6.614;2023-09-19T14:39:04;1.65;;;0.93;;
64871;SDS011;51351;51.450;6.614;2023-09-19T14:41:29;4.03;;;1.00;;
64871;SDS011;51351;51.450;6.614;2023-09-19T14:43:56;1.17;;;0.60;;
64871;SDS011;51351;51.450;6.614;2023-09-19T14:46:21;1.35;;;0.80;;
64871;SDS011;51351;51.450;6.614;2023-09-19T14:48:50;3.30;;;0.50;;
64871;SDS011;51351;51.450;6.614;2023-09-19T14:51:16;3.67;;;1.05;;
64871;SDS011;51351;51.450;6.614;2023-09-19T14:53:44;1.40;;;0.65;;
64871;SDS011;51351;51.450;6.614;2023-09-19T14:56:10;5.60;;;0.95;;
64871;SDS011;51351;51.450;6.614;2023-09-19T14:58:36;3.58;;;1.05;;
64871;SDS011;51351;51.450;6.614;2023-09-19T15:01:07;1.35;;;0.70;;
64871;SDS011;51351;51.450;6.614;2023-09-19T15:03:35;8.95;;;2.03;;
64871;SDS011;51351;51.450;6.614;2023-09-19T15:06:02;4.40;;;0.50;;
64871;SDS011;51351;51.450;6.614;2023-09-19T15:08:30;3.75;;;0.75;;
64871;SDS011;51351;51.450;6.614;2023-09-19T15:11:00;1.67;;;0.82;;
64871;SDS011;51351;51.450;6.614;2023-09-19T15:13:32;3.92;;;0.95;;
64871;SDS011;51351;51.450;6.614;2023-09-19T15:16:02;2.63;;;0.80;;
64871;SDS011;51351;51.450;6.614;2023-09-19T15:18:34;2.85;;;0.80;;
64871;SDS011;51351;51.450;6.614;2023-09-19T15:21:12;2.20;;;0.50;;
64871;SDS011;51351;51.450;6.614;2023-09-19T15:23:39;2.33;;;1.40;;
64871;SDS011;51351;51.450;6.614;2023-09-19T15:26:13;2.42;;;0.90;;
64871;SDS011;51351;51.450;6.614;2023-09-19T15:28:42;2.60;;;1.17;;
64871;SDS011;51351;51.450;6.614;2023-09-19T15:31:08;2.70;;;0.80;;
64871;SDS011;51351;51.450;6.614;2023-09-19T15:33:36;4.05;;;1.02;;
64871;SDS011;51351;51.450;6.614;2023-09-19T15:36:11;3.95;;;0.80;;
64871;SDS011;51351;51.450;6.614;2023-09-19T15:41:35;1.95;;;0.82;;
64871;SDS011;51351;51.450;6.614;2023-09-19T15:44:04;1.92;;;0.80;;
64871;SDS011;51351;51.450;6.614;2023-09-19T15:46:36;2.60;;;0.70;;
64871;SDS011;51351;51.450;6.614;2023-09-19T15:51:28;7.78;;;0.95;;
64871;SDS011;51351;51.450;6.614;2023-09-19T15:53:54;2.58;;;1.52;;
64871;SDS011;51351;51.450;6.614;2023-09-19T15:56:21;6.63;;;1.02;;
64871;SDS011;51351;51.450;6.614;2023-09-19T15:58:48;4.60;;;1.45;;
64871;SDS011;51351;51.450;6.614;2023-09-19T16:01:14;2.17;;;0.97;;
64871;SDS011;51351;51.450;6.614;2023-09-19T16:03:46;2.42;;;0.90;;
64871;SDS011;51351;51.450;6.614;2023-09-19T16:06:13;2.25;;;0.90;;
64871;SDS011;51351;51.450;6.614;2023-09-19T16:13:32;1.15;;;0.70;;
64871;SDS011;51351;51.450;6.614;2023-09-19T16:15:57;3.13;;;0.88;;
64871;SDS011;51351;51.450;6.614;2023-09-19T16:18:23;4.95;;;0.70;;
64871;SDS011;51351;51.450;6.614;2023-09-19T16:20:51;5.10;;;0.90;;
64871;SDS011;51351;51.450;6.614;2023-09-19T16:23:17;1.55;;;1.08;;
64871;SDS011;51351;51.450;6.614;2023-09-19T16:28:10;2.00;;;0.98;;
64871;SDS011;51351;51.450;6.614;2023-09-19T16:30:36;2.35;;;0.70;;
64871;SDS011;51351;51.450;6.614;2023-09-19T16:33:04;2.40;;;0.75;;
64871;SDS011;51351;51.450;6.614;2023-09-19T16:35:29;3.08;;;1.00;;
64871;SDS011;51351;51.450;6.614;2023-09-19T16:37:55;8.15;;;1.30;;
64871;SDS011;51351;51.450;6.614;2023-09-19T16:40:20;2.55;;;1.00;;
64871;SDS011;51351;51.450;6.614;2023-09-19T16:42:46;3.45;;;0.98;;
64871;SDS011;51351;51.450;6.614;2023-09-19T16:45:11;3.15;;;1.20;;
64871;SDS011;51351;51.450;6.614;2023-09-19T16:47:37;2.40;;;0.88;;
64871;SDS011;51351;51.450;6.614;2023-09-19T16:50:03;3.17;;;0.85;;
64871;SDS011;51351;51.450;6.614;2023-09-19T16:52:30;0.82;;;0.70;;
64871;SDS011;51351;51.450;6.614;2023-09-19T16:54:56;1.17;;;0.90;;
64871;SDS011;51351;51.450;6.614;2023-09-19T16:57:21;1.92;;;0.88;;
64871;SDS011;51351;51.450;6.614;2023-09-19T16:59:47;5.13;;;1.70;;
64871;SDS011;51351;51.450;6.614;2023-09-19T17:02:15;1.98;;;0.90;;
64871;SDS011;51351;51.450;6.614;2023-09-19T17:04:41;3.08;;;1.10;;
64871;SDS011;51351;51.450;6.614;2023-09-19T17:07:07;3.25;;;0.80;;
64871;SDS011;51351;51.450;6.614;2023-09-19T17:09:34;3.13;;;1.40;;
64871;SDS011;51351;51.450;6.614;2023-09-19T17:12:00;4.70;;;1.35;;
64871;SDS011;51351;51.450;6.614;2023-09-19T17:14:27;3.70;;;1.05;;
64871;SDS011;51351;51.450;6.614;2023-09-19T17:16:55;1.83;;;1.30;;
64871;SDS011;51351;51.450;6.614;2023-09-19T17:19:20;5.63;;;2.45;;
64871;SDS011;51351;51.450;6.614;2023-09-19T17:21:47;6.00;;;2.55;;
64871;SDS011;51351;51.450;6.614;2023-09-19T17:24:13;6.70;;;2.10;;
64871;SDS011;51351;51.450;6.614;2023-09-19T17:26:38;2.00;;;1.55;;
64871;SDS011;51351;51.450;6.614;2023-09-19T17:29:05;3.40;;;1.20;;
64871;SDS011;51351;51.450;6.614;2023-09-19T17:31:31;3.70;;;1.67;;
64871;SDS011;51351;51.450;6.614;2023-09-19T17:33:57;3.67;;;2.10;;
64871;SDS011;51351;51.450;6.614;2023-09-19T17:36:26;3.33;;;1.25;;
64871;SDS011;51351;51.450;6.614;2023-09-19T17:38:57;4.00;;;1.08;;
64871;SDS011;51351;51.450;6.614;2023-09-19T17:41:23;5.57;;;1.73;;